Search for airport 
image banner adimage banner adimage banner ad
image banner ad

4C7 - Ackley Muni

Located in Ackley, United States

ICAO - 4C7, IATA -

Data provided by Airmate  

General information

Coordinates: N42°32'51" W93°2'0"
Elevation is 1070 feet MSL.
Magnetic variation is 03° East
View others Airports in Iowa

Operational data

Special qualification required
Current time UTC:
Current local time:
Weather at : KIFA - Iowa Falls Muni ( 21 km )
METAR: KIFA 150955Z AUTO 00000KT 10SM CLR 14/09 A3012 RMK AO2 T01410092
View NOTAMs / SUP AIP / TFR affecting this airport [VIEW]
Communications frequencies: [VIEW]

Runways:

RWY identifierQFULength (ft)Width (ft)SurfaceLDA (ft)
152725100GRASS
332725100GRASS

Airport contact information

Address: Ackley United States

Satellite view of 4C7